createdAt,value
2019-01-14T00:00:12.282Z,28.64
2019-01-14T00:00:49.099Z,28.68
2019-01-14T00:01:25.905Z,28.70
2019-01-14T00:02:02.280Z,28.71
2019-01-14T00:02:38.982Z,28.73
2019-01-14T00:03:15.985Z,28.75
2019-01-14T00:03:52.711Z,28.77
2019-01-14T00:04:29.355Z,28.78
2019-01-14T00:05:06.936Z,28.80
2019-01-14T00:05:43.246Z,28.81
2019-01-14T00:06:19.991Z,28.83
2019-01-14T00:06:56.997Z,28.83
2019-01-14T00:07:34.123Z,28.83
2019-01-14T00:08:10.469Z,28.82
2019-01-14T00:08:47.416Z,28.82
2019-01-14T00:09:31.083Z,28.83
2019-01-14T00:10:04.510Z,28.84
2019-01-14T00:10:41.236Z,28.85
2019-01-14T00:11:17.986Z,28.86
2019-01-14T00:11:55.003Z,28.87
2019-01-14T00:12:33.009Z,28.87
2019-01-14T00:13:09.706Z,28.88
2019-01-14T00:13:45.916Z,28.90
2019-01-14T00:14:22.254Z,28.90
2019-01-14T00:14:58.784Z,28.91
2019-01-14T00:15:35.672Z,28.92
2019-01-14T00:16:11.955Z,28.92
2019-01-14T00:16:49.018Z,28.94
2019-01-14T00:17:25.856Z,28.94
2019-01-14T00:18:02.466Z,28.96
2019-01-14T00:18:38.728Z,28.94
2019-01-14T00:19:15.108Z,28.95
2019-01-14T00:19:51.422Z,28.94
2019-01-14T00:20:28.378Z,28.95
2019-01-14T00:21:04.990Z,28.96
2019-01-14T00:21:41.230Z,28.94
2019-01-14T00:22:17.544Z,28.95
2019-01-14T00:22:53.885Z,28.93
2019-01-14T00:23:30.541Z,28.95
2019-01-14T00:24:07.220Z,28.96
2019-01-14T00:24:44.227Z,28.98
2019-01-14T00:25:20.787Z,28.99
2019-01-14T00:26:00.218Z,29.00
2019-01-14T00:26:37.171Z,29.01
2019-01-14T00:27:13.680Z,29.01
2019-01-14T00:27:51.494Z,29.02
2019-01-14T00:28:28.497Z,29.01
2019-01-14T00:29:04.893Z,29.04
2019-01-14T00:29:41.126Z,29.04
2019-01-14T00:30:19.117Z,29.06
2019-01-14T00:30:55.734Z,29.05
2019-01-14T00:31:32.763Z,29.05
2019-01-14T00:32:10.382Z,29.06
2019-01-14T00:32:47.044Z,29.07
2019-01-14T00:33:23.591Z,29.07
2019-01-14T00:34:00.590Z,29.07
2019-01-14T00:34:37.533Z,29.09
2019-01-14T00:35:13.888Z,29.10
2019-01-14T00:35:50.929Z,29.10
2019-01-14T00:36:27.431Z,29.11
2019-01-14T00:37:03.819Z,29.11
2019-01-14T00:37:40.631Z,29.12
2019-01-14T00:38:17.560Z,29.13
2019-01-14T00:38:53.974Z,29.13
2019-01-14T00:39:30.173Z,29.15
2019-01-14T00:40:08.012Z,29.14
2019-01-14T00:40:44.349Z,29.16
2019-01-14T00:41:21.169Z,29.17
2019-01-14T00:41:57.251Z,29.20
2019-01-14T00:42:34.345Z,29.20
2019-01-14T00:43:11.383Z,29.23
2019-01-14T00:43:48.199Z,29.23
2019-01-14T00:44:24.795Z,29.24
2019-01-14T00:45:01.419Z,29.22
2019-01-14T00:45:37.762Z,29.22
2019-01-14T00:46:14.548Z,29.27
2019-01-14T00:46:51.199Z,29.28
2019-01-14T00:47:28.186Z,29.30
2019-01-14T00:48:05.084Z,29.31
2019-01-14T00:48:41.962Z,29.33
2019-01-14T00:49:18.717Z,29.34
2019-01-14T00:49:55.043Z,29.35
2019-01-14T00:50:31.715Z,29.31
2019-01-14T00:51:08.122Z,29.38
2019-01-14T00:51:44.442Z,29.35
2019-01-14T00:52:21.160Z,29.35
2019-01-14T00:52:58.265Z,29.41
2019-01-14T00:53:35.234Z,29.37
2019-01-14T00:54:11.583Z,29.37
2019-01-14T00:54:47.920Z,29.44
2019-01-14T00:55:25.043Z,29.44
2019-01-14T00:56:01.776Z,29.46
2019-01-14T00:56:38.587Z,29.47
2019-01-14T00:57:14.988Z,29.48
2019-01-14T00:57:51.929Z,29.48
2019-01-14T00:58:28.876Z,29.51
2019-01-14T00:59:05.266Z,29.47
2019-01-14T00:59:42.238Z,29.47
2019-01-14T01:00:22.746Z,29.48
2019-01-14T01:00:59.074Z,29.48
2019-01-14T01:01:36.100Z,29.54
2019-01-14T01:02:12.773Z,29.55
2019-01-14T01:02:49.859Z,29.56
2019-01-14T01:03:26.242Z,29.56
2019-01-14T01:04:03.047Z,29.55
2019-01-14T01:04:39.947Z,29.59
2019-01-14T01:05:16.450Z,29.60
2019-01-14T01:05:53.361Z,29.55
2019-01-14T01:06:29.638Z,29.55
2019-01-14T01:07:06.653Z,29.58
2019-01-14T01:07:43.322Z,29.62
2019-01-14T01:08:20.317Z,29.63
2019-01-14T01:08:57.252Z,29.62
2019-01-14T01:09:33.944Z,29.57
2019-01-14T01:10:12.022Z,29.58
2019-01-14T01:10:49.210Z,29.58
2019-01-14T01:11:25.577Z,29.61
2019-01-14T01:12:03.112Z,29.61
2019-01-14T01:12:41.250Z,29.61
2019-01-14T01:13:18.718Z,29.55
2019-01-14T01:13:55.651Z,29.61
2019-01-14T01:14:32.365Z,29.61
2019-01-14T01:15:10.374Z,29.61
2019-01-14T01:15:47.437Z,29.65
2019-01-14T01:16:24.206Z,29.65
2019-01-14T01:17:01.186Z,29.65
2019-01-14T01:17:37.870Z,29.67
2019-01-14T01:18:14.089Z,29.67
2019-01-14T01:18:50.732Z,29.71
2019-01-14T01:19:27.338Z,29.68
2019-01-14T01:20:04.334Z,29.68
2019-01-14T01:20:41.832Z,29.72
2019-01-14T01:21:18.579Z,29.72
2019-01-14T01:21:55.488Z,29.72
2019-01-14T01:22:32.650Z,29.72
2019-01-14T01:23:08.950Z,29.73
2019-01-14T01:23:45.889Z,29.73
2019-01-14T01:24:22.732Z,29.70
2019-01-14T01:24:59.860Z,29.74
2019-01-14T01:25:36.531Z,29.74
2019-01-14T01:26:13.246Z,29.75
2019-01-14T01:26:49.706Z,29.75
2019-01-14T01:27:25.939Z,29.75
2019-01-14T01:28:02.941Z,29.73
2019-01-14T01:28:39.318Z,29.72
2019-01-14T01:29:15.814Z,29.69
2019-01-14T01:29:52.883Z,29.69
2019-01-14T01:30:29.297Z,29.70
2019-01-14T01:31:06.299Z,29.70
2019-01-14T01:31:43.259Z,29.72
2019-01-14T01:32:19.582Z,29.72
2019-01-14T01:32:56.393Z,29.72
2019-01-14T01:33:33.376Z,29.72
2019-01-14T01:34:09.783Z,29.76
2019-01-14T01:34:46.258Z,29.79
2019-01-14T01:35:22.814Z,29.83
2019-01-14T01:35:59.459Z,29.87
2019-01-14T01:36:35.971Z,29.87
2019-01-14T01:37:12.889Z,29.83
2019-01-14T01:37:49.109Z,29.85
2019-01-14T01:38:26.004Z,29.98
2019-01-14T01:39:03.734Z,30.08
2019-01-14T01:39:40.141Z,30.10
2019-01-14T01:40:18.918Z,30.33
2019-01-14T01:40:55.268Z,30.33
2019-01-14T01:41:32.005Z,30.41
2019-01-14T01:42:08.448Z,30.41
2019-01-14T01:42:45.320Z,30.39
2019-01-14T01:43:22.537Z,30.50
2019-01-14T01:43:58.792Z,30.50
2019-01-14T01:44:35.859Z,30.64
2019-01-14T01:45:13.002Z,30.77
2019-01-14T01:45:49.364Z,30.77
2019-01-14T01:46:25.668Z,30.88
2019-01-14T01:47:01.976Z,30.90
2019-01-14T01:47:38.344Z,30.99
2019-01-14T01:48:14.675Z,31.05
2019-01-14T01:48:51.524Z,31.08
2019-01-14T01:49:28.267Z,31.15
2019-01-14T01:50:04.741Z,31.29
2019-01-14T01:50:41.122Z,31.29
2019-01-14T01:51:18.017Z,31.34
2019-01-14T01:51:54.940Z,31.39
2019-01-14T01:52:31.238Z,31.45
2019-01-14T01:53:07.809Z,31.46
2019-01-14T01:53:44.683Z,31.53
2019-01-14T01:54:22.249Z,31.57
2019-01-14T01:54:58.552Z,31.62
2019-01-14T01:55:34.871Z,31.68
2019-01-14T01:56:11.758Z,31.71
2019-01-14T01:56:48.347Z,31.75
2019-01-14T01:57:25.628Z,31.78
2019-01-14T01:58:02.641Z,31.82
2019-01-14T01:58:38.793Z,31.87
2019-01-14T01:59:15.026Z,31.90
2019-01-14T01:59:52.129Z,31.96
2019-01-14T02:00:28.670Z,31.99
2019-01-14T02:01:07.169Z,32.01
2019-01-14T02:01:44.108Z,32.03
2019-01-14T02:02:21.127Z,32.06
2019-01-14T02:02:57.730Z,32.07
2019-01-14T02:03:34.737Z,32.10
2019-01-14T02:04:11.074Z,32.10
2019-01-14T02:04:47.797Z,32.15
2019-01-14T02:05:24.690Z,32.16
2019-01-14T02:06:01.786Z,32.18
2019-01-14T02:06:39.302Z,32.21
2019-01-14T02:07:16.337Z,32.25
2019-01-14T02:07:52.611Z,32.27
2019-01-14T02:08:29.327Z,32.26
2019-01-14T02:09:06.839Z,32.31
2019-01-14T02:09:44.496Z,32.34
2019-01-14T02:10:25.042Z,32.34
2019-01-14T02:11:01.394Z,32.43
2019-01-14T02:11:38.515Z,32.47
2019-01-14T02:12:15.372Z,32.53
2019-01-14T02:12:51.688Z,32.59
2019-01-14T02:13:28.376Z,32.63
2019-01-14T02:14:05.185Z,32.67
2019-01-14T02:14:42.079Z,32.71
2019-01-14T02:15:18.859Z,32.75
2019-01-14T02:15:55.876Z,32.78
2019-01-14T02:16:33.249Z,32.79
2019-01-14T02:17:09.787Z,32.81
2019-01-14T02:17:48.254Z,32.85
2019-01-14T02:18:24.635Z,32.88
2019-01-14T02:19:01.047Z,32.87
2019-01-14T02:19:37.961Z,32.84
2019-01-14T02:20:15.910Z,32.79
2019-01-14T02:20:52.797Z,32.72
2019-01-14T02:21:29.699Z,32.67
2019-01-14T02:22:06.705Z,32.67
2019-01-14T02:22:43.629Z,32.56
2019-01-14T02:23:20.140Z,32.54
2019-01-14T02:23:56.339Z,32.51
2019-01-14T02:24:32.697Z,32.49
2019-01-14T02:25:09.920Z,32.48
2019-01-14T02:25:46.177Z,32.52
2019-01-14T02:26:22.990Z,32.47
2019-01-14T02:26:59.319Z,32.52
2019-01-14T02:27:36.588Z,32.55
2019-01-14T02:28:12.981Z,32.53
2019-01-14T02:28:49.726Z,32.56
2019-01-14T02:29:26.331Z,32.54
2019-01-14T02:30:02.452Z,32.58
2019-01-14T02:30:39.520Z,32.62
2019-01-14T02:31:16.610Z,32.67
2019-01-14T02:31:53.761Z,32.69
2019-01-14T02:32:30.546Z,32.73
2019-01-14T02:33:07.291Z,32.74
2019-01-14T02:33:43.695Z,32.77
2019-01-14T02:34:20.441Z,32.79
2019-01-14T02:34:57.954Z,32.78
2019-01-14T02:35:34.776Z,32.78
2019-01-14T02:36:11.152Z,32.82
2019-01-14T02:36:48.855Z,32.86
2019-01-14T02:37:25.279Z,32.89
2019-01-14T02:38:01.900Z,32.93
2019-01-14T02:38:39.042Z,32.97
2019-01-14T02:39:16.549Z,33.03
2019-01-14T02:39:52.849Z,33.04
2019-01-14T02:40:29.908Z,33.04
2019-01-14T02:41:06.182Z,33.05
2019-01-14T02:41:43.366Z,33.11
2019-01-14T02:42:19.754Z,33.16
2019-01-14T02:42:56.621Z,33.22
2019-01-14T02:43:33.650Z,33.26
2019-01-14T02:44:10.690Z,33.30
2019-01-14T02:44:47.796Z,33.27
2019-01-14T02:45:24.098Z,33.24
2019-01-14T02:46:04.550Z,33.20
2019-01-14T02:46:40.866Z,33.17
2019-01-14T02:47:17.661Z,33.14
2019-01-14T02:47:54.109Z,33.15
2019-01-14T02:48:31.193Z,33.19
2019-01-14T02:49:08.162Z,33.18
2019-01-14T02:49:44.962Z,33.24
2019-01-14T02:50:21.666Z,33.22
2019-01-14T02:50:57.940Z,33.18
2019-01-14T02:51:34.347Z,33.19
2019-01-14T02:52:11.219Z,33.12
2019-01-14T02:52:47.445Z,33.12
2019-01-14T02:53:23.997Z,33.13
2019-01-14T02:54:00.991Z,33.13
2019-01-14T02:54:38.115Z,33.11
2019-01-14T02:55:15.215Z,33.14
2019-01-14T02:55:51.377Z,33.16
2019-01-14T02:56:28.229Z,33.20
2019-01-14T02:57:04.606Z,33.26
2019-01-14T02:57:41.295Z,33.30
2019-01-14T02:58:18.208Z,33.35
2019-01-14T02:58:54.652Z,33.39
2019-01-14T02:59:31.778Z,33.43
2019-01-14T03:00:20.567Z,33.51
2019-01-14T03:00:58.363Z,33.55
2019-01-14T03:01:37.365Z,33.57
2019-01-14T03:02:14.677Z,33.61
2019-01-14T03:02:51.681Z,33.63
2019-01-14T03:03:29.236Z,33.55
2019-01-14T03:04:05.563Z,33.52
2019-01-14T03:04:42.724Z,33.52
2019-01-14T03:05:19.164Z,33.50
2019-01-14T03:05:55.364Z,33.53
2019-01-14T03:06:31.906Z,33.56
2019-01-14T03:07:08.986Z,33.57
2019-01-14T03:07:45.337Z,33.61
2019-01-14T03:08:24.802Z,33.62
2019-01-14T03:09:01.946Z,33.67
2019-01-14T03:09:38.861Z,33.74
2019-01-14T03:10:15.230Z,33.80
2019-01-14T03:10:53.393Z,33.83
2019-01-14T03:11:29.680Z,33.88
2019-01-14T03:12:05.917Z,33.93
2019-01-14T03:12:42.790Z,33.96
2019-01-14T03:13:19.907Z,33.99
2019-01-14T03:13:56.247Z,34.01
2019-01-14T03:14:34.246Z,34.01
2019-01-14T03:15:11.105Z,34.04
2019-01-14T03:15:47.464Z,34.09
2019-01-14T03:16:24.007Z,34.08
2019-01-14T03:17:01.807Z,34.07
2019-01-14T03:17:38.913Z,34.01
2019-01-14T03:18:15.288Z,34.06
2019-01-14T03:18:52.528Z,34.08
2019-01-14T03:19:29.415Z,34.07
2019-01-14T03:20:07.626Z,34.04
2019-01-14T03:20:44.007Z,34.09
2019-01-14T03:21:20.956Z,34.12
2019-01-14T03:21:57.304Z,34.12
2019-01-14T03:22:34.038Z,34.16
2019-01-14T03:23:11.033Z,34.19
2019-01-14T03:23:47.913Z,34.17
2019-01-14T03:24:24.686Z,34.18
2019-01-14T03:25:01.693Z,34.09
2019-01-14T03:25:38.001Z,34.05
2019-01-14T03:26:14.392Z,34.10
2019-01-14T03:26:51.429Z,34.11
2019-01-14T03:27:27.801Z,34.16
2019-01-14T03:28:04.654Z,34.16
2019-01-14T03:28:40.814Z,34.22
2019-01-14T03:29:17.143Z,34.18
2019-01-14T03:29:53.405Z,34.19
2019-01-14T03:30:29.600Z,34.23
2019-01-14T03:31:06.810Z,34.22
2019-01-14T03:31:43.839Z,34.25
2019-01-14T03:32:20.763Z,34.27
2019-01-14T03:32:57.106Z,34.27
2019-01-14T03:33:33.776Z,34.29
2019-01-14T03:34:10.564Z,34.32
2019-01-14T03:34:47.532Z,34.36
2019-01-14T03:35:24.477Z,34.35
2019-01-14T03:36:01.276Z,34.36
2019-01-14T03:36:37.609Z,34.39
2019-01-14T03:37:14.727Z,34.39
2019-01-14T03:37:51.725Z,34.35
2019-01-14T03:38:28.590Z,34.35
2019-01-14T03:39:06.407Z,34.30
2019-01-14T03:39:43.221Z,34.32
2019-01-14T03:40:20.411Z,34.32
2019-01-14T03:40:56.798Z,34.34
2019-01-14T03:41:33.850Z,34.34
2019-01-14T03:42:10.815Z,34.38
2019-01-14T03:42:47.465Z,34.41
2019-01-14T03:43:24.714Z,34.44
2019-01-14T03:44:01.071Z,34.46
2019-01-14T03:44:37.727Z,34.49
2019-01-14T03:45:14.952Z,34.50
2019-01-14T03:45:52.737Z,34.49
2019-01-14T03:46:29.071Z,34.51
2019-01-14T03:47:05.356Z,34.50
2019-01-14T03:47:42.478Z,34.49
2019-01-14T03:48:18.661Z,34.50
2019-01-14T03:48:56.209Z,34.53
2019-01-14T03:49:33.118Z,34.51
2019-01-14T03:50:12.786Z,34.50
2019-01-14T03:50:49.023Z,34.50
2019-01-14T03:51:25.925Z,34.49
2019-01-14T03:52:02.833Z,34.49
2019-01-14T03:52:39.773Z,34.44
2019-01-14T03:53:16.129Z,34.33
2019-01-14T03:53:52.364Z,34.36
2019-01-14T03:54:28.815Z,34.35
2019-01-14T03:55:06.652Z,34.35
2019-01-14T03:55:43.675Z,34.38
2019-01-14T03:56:20.122Z,34.39
2019-01-14T03:56:56.858Z,34.44
2019-01-14T03:57:33.236Z,34.46
2019-01-14T03:58:09.625Z,34.49
2019-01-14T03:58:45.765Z,34.49
2019-01-14T03:59:22.602Z,34.53
2019-01-14T03:59:59.322Z,34.54
2019-01-14T04:00:35.982Z,34.58
2019-01-14T04:01:13.047Z,34.60
2019-01-14T04:01:50.068Z,34.63
2019-01-14T04:02:26.774Z,34.63
2019-01-14T04:03:03.403Z,34.67
2019-01-14T04:03:39.836Z,34.70
2019-01-14T04:04:16.853Z,34.68
2019-01-14T04:04:53.859Z,34.74
2019-01-14T04:05:30.214Z,34.77
2019-01-14T04:06:06.530Z,34.79
2019-01-14T04:06:42.851Z,34.78
2019-01-14T04:07:19.280Z,34.80
2019-01-14T04:08:00.151Z,34.79
2019-01-14T04:08:36.922Z,34.79
2019-01-14T04:09:13.922Z,34.78
2019-01-14T04:09:50.674Z,34.80
2019-01-14T04:10:26.992Z,34.78
2019-01-14T04:11:04.025Z,34.73
2019-01-14T04:11:40.345Z,34.79
2019-01-14T04:12:17.060Z,34.73
2019-01-14T04:12:53.358Z,34.76
2019-01-14T04:13:29.565Z,34.76
2019-01-14T04:14:05.834Z,34.78
2019-01-14T04:14:42.473Z,34.80
2019-01-14T04:15:20.799Z,34.83
2019-01-14T04:15:57.780Z,34.86
2019-01-14T04:16:34.034Z,34.88
2019-01-14T04:17:10.320Z,34.89
2019-01-14T04:17:47.078Z,34.93
2019-01-14T04:18:24.288Z,34.94
2019-01-14T04:19:00.767Z,34.95
2019-01-14T04:19:37.859Z,34.95
2019-01-14T04:20:15.780Z,34.95
2019-01-14T04:20:52.601Z,34.96
2019-01-14T04:21:29.027Z,34.98
2019-01-14T04:22:05.996Z,34.99
2019-01-14T04:22:42.445Z,35.06
2019-01-14T04:23:18.824Z,35.08
2019-01-14T04:23:55.928Z,35.12
2019-01-14T04:24:32.274Z,35.15
2019-01-14T04:25:08.968Z,35.17
2019-01-14T04:25:46.023Z,35.18
2019-01-14T04:26:22.305Z,35.19
2019-01-14T04:26:59.294Z,35.19
2019-01-14T04:27:39.590Z,35.21
2019-01-14T04:28:16.581Z,35.18
2019-01-14T04:28:52.757Z,35.20
2019-01-14T04:29:29.419Z,35.22
2019-01-14T04:30:08.557Z,35.19
2019-01-14T04:30:44.757Z,35.16
2019-01-14T04:31:21.608Z,35.12
2019-01-14T04:31:58.765Z,35.14
2019-01-14T04:32:35.784Z,35.15
2019-01-14T04:33:11.990Z,35.13
2019-01-14T04:33:48.888Z,35.13
2019-01-14T04:34:26.769Z,35.10
2019-01-14T04:35:03.322Z,35.05
2019-01-14T04:35:39.729Z,35.02
2019-01-14T04:36:16.334Z,34.95
2019-01-14T04:36:52.677Z,34.94
2019-01-14T04:37:29.640Z,34.97
2019-01-14T04:38:06.518Z,34.99
2019-01-14T04:38:42.866Z,34.98
2019-01-14T04:39:19.886Z,34.98
2019-01-14T04:39:56.496Z,35.01
2019-01-14T04:40:32.810Z,35.03
2019-01-14T04:41:09.799Z,35.05
2019-01-14T04:41:47.138Z,35.01
2019-01-14T04:42:23.498Z,35.03
2019-01-14T04:43:00.270Z,35.04
2019-01-14T04:43:37.094Z,35.05
2019-01-14T04:44:13.406Z,35.04
2019-01-14T04:44:50.146Z,35.00
2019-01-14T04:45:26.456Z,35.00
2019-01-14T04:46:02.816Z,34.98
2019-01-14T04:46:39.407Z,34.95
2019-01-14T04:47:16.447Z,34.97
2019-01-14T04:47:52.713Z,35.00
2019-01-14T04:48:28.885Z,35.03
2019-01-14T04:49:05.178Z,35.05
2019-01-14T04:49:43.436Z,35.06
2019-01-14T04:50:22.077Z,35.08
2019-01-14T04:50:58.415Z,35.04
2019-01-14T04:51:34.760Z,35.00
2019-01-14T04:52:11.419Z,35.05
2019-01-14T04:52:48.189Z,35.09
2019-01-14T04:53:24.445Z,35.11
2019-01-14T04:54:00.854Z,35.10
2019-01-14T04:54:37.656Z,35.06
2019-01-14T04:55:13.904Z,35.06
2019-01-14T04:55:50.125Z,35.04
2019-01-14T04:56:26.959Z,35.04
2019-01-14T04:57:04.138Z,34.96
2019-01-14T04:57:40.357Z,35.04
2019-01-14T04:58:17.113Z,35.06
2019-01-14T04:58:54.027Z,35.11
2019-01-14T04:59:30.827Z,35.11
2019-01-14T05:00:15.468Z,35.13
2019-01-14T05:00:52.408Z,35.15
2019-01-14T05:01:29.314Z,35.13
2019-01-14T05:02:05.893Z,35.17
2019-01-14T05:02:42.678Z,35.18
2019-01-14T05:03:19.089Z,35.21
2019-01-14T05:03:55.420Z,35.21
2019-01-14T05:04:31.859Z,35.21
2019-01-14T05:05:08.631Z,35.23
2019-01-14T05:05:46.034Z,35.26
2019-01-14T05:06:23.986Z,35.28
2019-01-14T05:07:00.963Z,35.30
2019-01-14T05:07:37.940Z,35.30
2019-01-14T05:08:14.238Z,35.31
2019-01-14T05:08:51.175Z,35.30
2019-01-14T05:09:28.024Z,35.31
2019-01-14T05:10:04.546Z,35.32
2019-01-14T05:10:41.655Z,35.35
2019-01-14T05:11:18.818Z,35.36
2019-01-14T05:11:55.872Z,35.38
2019-01-14T05:12:32.111Z,35.38
2019-01-14T05:13:08.293Z,35.35
2019-01-14T05:13:44.454Z,35.33
2019-01-14T05:14:21.494Z,35.27
2019-01-14T05:14:57.887Z,35.27
2019-01-14T05:15:34.306Z,35.23
2019-01-14T05:16:11.358Z,35.21
2019-01-14T05:16:47.678Z,35.21
2019-01-14T05:17:24.125Z,35.24
2019-01-14T05:18:00.967Z,35.24
2019-01-14T05:18:37.928Z,35.29
2019-01-14T05:19:14.577Z,35.32
2019-01-14T05:19:51.203Z,35.37
2019-01-14T05:20:28.829Z,35.40
2019-01-14T05:21:05.696Z,35.40
2019-01-14T05:21:42.256Z,35.41
2019-01-14T05:22:18.592Z,35.44
2019-01-14T05:22:55.331Z,35.45
2019-01-14T05:23:32.248Z,35.49
2019-01-14T05:24:09.306Z,35.51
2019-01-14T05:24:45.824Z,35.54
2019-01-14T05:25:22.821Z,35.56
2019-01-14T05:25:59.007Z,35.56
2019-01-14T05:26:35.295Z,35.57
2019-01-14T05:27:12.077Z,35.59
2019-01-14T05:27:48.231Z,35.60
2019-01-14T05:28:24.731Z,35.60
2019-01-14T05:29:01.617Z,35.60
2019-01-14T05:29:37.844Z,35.60
2019-01-14T05:30:15.500Z,35.60
2019-01-14T05:30:52.314Z,35.58
2019-01-14T05:31:28.476Z,35.58
2019-01-14T05:32:05.546Z,35.60
2019-01-14T05:32:43.290Z,35.64
2019-01-14T05:33:19.480Z,35.65
2019-01-14T05:33:55.802Z,35.64
2019-01-14T05:34:32.655Z,35.63
2019-01-14T05:35:09.361Z,35.63
2019-01-14T05:35:46.849Z,35.64
2019-01-14T05:36:24.531Z,35.65
2019-01-14T05:37:01.513Z,35.57
2019-01-14T05:37:38.764Z,35.56
2019-01-14T05:38:15.418Z,35.54
2019-01-14T05:38:52.603Z,35.53
2019-01-14T05:39:29.087Z,35.54
2019-01-14T05:40:08.232Z,35.53
2019-01-14T05:40:44.838Z,35.51
2019-01-14T05:41:22.058Z,35.52
2019-01-14T05:41:58.436Z,35.52
2019-01-14T05:42:35.581Z,35.52
2019-01-14T05:43:12.460Z,35.54
2019-01-14T05:43:48.750Z,35.56
2019-01-14T05:44:25.661Z,35.57
2019-01-14T05:45:02.335Z,35.59
2019-01-14T05:45:38.749Z,35.62
2019-01-14T05:46:15.551Z,35.64
2019-01-14T05:46:52.535Z,35.66
2019-01-14T05:47:28.916Z,35.69
2019-01-14T05:48:05.189Z,35.68
2019-01-14T05:48:41.591Z,35.71
2019-01-14T05:49:18.044Z,35.68
2019-01-14T05:49:54.210Z,35.72
2019-01-14T05:50:31.260Z,35.74
2019-01-14T05:51:07.943Z,35.75
2019-01-14T05:51:44.668Z,35.74
2019-01-14T05:52:21.692Z,35.75
2019-01-14T05:52:59.968Z,35.74
2019-01-14T05:53:37.256Z,35.77
2019-01-14T05:54:13.506Z,35.77
2019-01-14T05:54:50.118Z,35.78
2019-01-14T05:55:26.860Z,35.76
2019-01-14T05:56:03.651Z,35.78
2019-01-14T05:56:40.720Z,35.77
2019-01-14T05:57:17.313Z,35.74
2019-01-14T05:57:53.584Z,35.68
2019-01-14T05:58:29.847Z,35.62
2019-01-14T05:59:06.477Z,35.63
2019-01-14T05:59:43.039Z,35.64
2019-01-14T06:00:35.381Z,35.59
2019-01-14T06:01:11.681Z,35.60
2019-01-14T06:01:47.988Z,35.59
2019-01-14T06:02:24.529Z,35.57
2019-01-14T06:03:01.026Z,35.59
2019-01-14T06:03:37.445Z,35.61
2019-01-14T06:04:14.506Z,35.63
2019-01-14T06:04:50.924Z,35.62
2019-01-14T06:05:27.384Z,35.61
2019-01-14T06:06:04.144Z,35.59
2019-01-14T06:06:40.400Z,35.59
2019-01-14T06:07:16.562Z,35.59
2019-01-14T06:07:53.378Z,35.61
2019-01-14T06:08:29.610Z,35.63
2019-01-14T06:09:08.269Z,35.65
2019-01-14T06:09:44.630Z,35.66
2019-01-14T06:10:21.735Z,35.66
2019-01-14T06:10:58.251Z,35.64
2019-01-14T06:11:35.286Z,35.66
2019-01-14T06:12:11.572Z,35.69
2019-01-14T06:12:47.959Z,35.71
2019-01-14T06:13:24.643Z,35.69
2019-01-14T06:14:00.896Z,35.69
2019-01-14T06:14:37.534Z,35.66
2019-01-14T06:15:14.330Z,35.69
2019-01-14T06:15:50.753Z,35.71
2019-01-14T06:16:27.405Z,35.70
2019-01-14T06:17:03.773Z,35.69
2019-01-14T06:17:40.063Z,35.68
2019-01-14T06:18:16.425Z,35.67
2019-01-14T06:18:53.521Z,35.69
2019-01-14T06:19:31.342Z,35.68
2019-01-14T06:20:09.563Z,35.67
2019-01-14T06:20:46.320Z,35.67
2019-01-14T06:21:23.933Z,35.62
2019-01-14T06:22:00.162Z,35.64
2019-01-14T06:22:37.239Z,35.65
2019-01-14T06:23:13.626Z,35.65
2019-01-14T06:23:49.798Z,35.67
2019-01-14T06:24:26.557Z,35.68
2019-01-14T06:25:03.048Z,35.62
2019-01-14T06:25:39.673Z,35.66
2019-01-14T06:26:16.443Z,35.67
2019-01-14T06:26:53.122Z,35.65
2019-01-14T06:27:29.435Z,35.65
2019-01-14T06:28:06.184Z,35.65
2019-01-14T06:28:45.092Z,35.65
2019-01-14T06:29:21.735Z,35.60
2019-01-14T06:29:58.801Z,35.60
2019-01-14T06:30:36.030Z,35.56
2019-01-14T06:31:12.721Z,35.54
2019-01-14T06:31:49.019Z,35.50
2019-01-14T06:32:25.974Z,35.42
2019-01-14T06:33:02.213Z,35.38
2019-01-14T06:33:39.097Z,35.31
2019-01-14T06:34:17.242Z,35.36
2019-01-14T06:34:54.525Z,35.30
2019-01-14T06:35:31.090Z,35.30
2019-01-14T06:36:07.445Z,35.26
2019-01-14T06:36:44.065Z,35.18
2019-01-14T06:37:20.351Z,35.08
2019-01-14T06:37:57.176Z,34.97
2019-01-14T06:38:33.486Z,34.86
2019-01-14T06:39:11.920Z,34.80
2019-01-14T06:39:48.637Z,34.73
2019-01-14T06:40:25.655Z,34.67
2019-01-14T06:41:02.055Z,34.72
2019-01-14T06:41:38.392Z,34.80
2019-01-14T06:42:15.209Z,34.86
2019-01-14T06:42:51.833Z,34.86
2019-01-14T06:43:28.642Z,34.85
2019-01-14T06:44:05.194Z,34.90
2019-01-14T06:44:42.196Z,34.90
2019-01-14T06:45:19.216Z,34.94
2019-01-14T06:45:55.617Z,34.97
2019-01-14T06:46:32.148Z,34.96
2019-01-14T06:47:08.997Z,34.96
2019-01-14T06:47:46.088Z,34.95
2019-01-14T06:48:22.493Z,34.95
2019-01-14T06:48:59.668Z,34.97
2019-01-14T06:49:36.772Z,34.99
2019-01-14T06:50:14.512Z,35.03
2019-01-14T06:50:50.856Z,34.93
2019-01-14T06:51:27.643Z,34.92
2019-01-14T06:52:03.881Z,34.94
2019-01-14T06:52:40.712Z,34.91
2019-01-14T06:53:17.880Z,34.93
2019-01-14T06:53:54.115Z,34.94
2019-01-14T06:54:30.893Z,34.94
2019-01-14T06:55:08.061Z,34.92
2019-01-14T06:55:44.214Z,34.92
2019-01-14T06:56:21.049Z,34.93
2019-01-14T06:56:58.494Z,34.94
2019-01-14T06:57:34.963Z,34.92
2019-01-14T06:58:11.663Z,34.90
2019-01-14T06:58:48.030Z,34.91
2019-01-14T06:59:24.286Z,34.93
2019-01-14T07:00:01.006Z,34.98
2019-01-14T07:00:37.297Z,34.97
2019-01-14T07:01:14.237Z,35.00
2019-01-14T07:01:50.720Z,35.01
2019-01-14T07:02:27.577Z,35.05
2019-01-14T07:03:04.664Z,35.07
2019-01-14T07:03:41.494Z,35.07
2019-01-14T07:04:18.538Z,35.06
2019-01-14T07:04:55.315Z,35.06
2019-01-14T07:05:32.143Z,35.10
2019-01-14T07:06:09.241Z,35.11
2019-01-14T07:06:45.557Z,35.11
2019-01-14T07:07:22.179Z,35.11
2019-01-14T07:08:00.020Z,35.11
2019-01-14T07:08:36.347Z,35.14
2019-01-14T07:09:12.879Z,35.15
2019-01-14T07:09:49.858Z,35.15
2019-01-14T07:10:33.316Z,35.18
2019-01-14T07:11:10.383Z,35.14
2019-01-14T07:11:46.792Z,35.19
2019-01-14T07:12:23.318Z,35.20
2019-01-14T07:13:00.489Z,35.18
2019-01-14T07:13:36.643Z,35.20
2019-01-14T07:14:13.030Z,35.23
2019-01-14T07:14:49.922Z,35.25
2019-01-14T07:15:26.360Z,35.29
2019-01-14T07:16:03.294Z,35.28
2019-01-14T07:16:39.656Z,35.33
2019-01-14T07:17:15.808Z,35.34
2019-01-14T07:17:52.035Z,35.36
2019-01-14T07:18:28.179Z,35.40
2019-01-14T07:19:04.462Z,35.39
2019-01-14T07:19:41.022Z,35.38
2019-01-14T07:20:19.220Z,35.37
2019-01-14T07:20:55.612Z,35.35
2019-01-14T07:21:32.592Z,35.32
2019-01-14T07:22:09.833Z,35.30
2019-01-14T07:22:46.156Z,35.29
2019-01-14T07:23:22.771Z,35.27
2019-01-14T07:23:59.429Z,35.26
2019-01-14T07:24:35.721Z,35.23
2019-01-14T07:25:12.874Z,35.27
2019-01-14T07:25:49.195Z,35.22
2019-01-14T07:26:26.312Z,35.14
2019-01-14T07:27:02.661Z,35.11
2019-01-14T07:27:39.625Z,35.08
2019-01-14T07:28:15.885Z,35.05
2019-01-14T07:28:52.777Z,35.11
2019-01-14T07:29:30.090Z,35.12
2019-01-14T07:30:08.137Z,35.10
2019-01-14T07:30:44.516Z,35.09
2019-01-14T07:31:20.934Z,35.12
2019-01-14T07:31:57.100Z,35.12
2019-01-14T07:32:33.990Z,35.11
2019-01-14T07:33:11.056Z,35.10
2019-01-14T07:33:47.402Z,35.06
2019-01-14T07:34:24.198Z,35.08
2019-01-14T07:35:02.291Z,35.07
2019-01-14T07:35:39.330Z,35.04
2019-01-14T07:36:15.760Z,35.08
2019-01-14T07:36:51.932Z,35.05
2019-01-14T07:37:28.144Z,35.04
2019-01-14T07:38:06.999Z,35.02
2019-01-14T07:38:43.748Z,35.07
2019-01-14T07:39:20.675Z,35.08
2019-01-14T07:39:57.025Z,35.10
2019-01-14T07:40:33.355Z,35.13
2019-01-14T07:41:09.690Z,35.16
2019-01-14T07:41:46.037Z,35.18
2019-01-14T07:42:22.833Z,35.21
2019-01-14T07:42:59.292Z,35.23
2019-01-14T07:43:35.509Z,35.23
2019-01-14T07:44:12.049Z,35.24
2019-01-14T07:44:48.487Z,35.23
2019-01-14T07:45:24.914Z,35.24
2019-01-14T07:46:01.373Z,35.24
2019-01-14T07:46:37.695Z,35.26
2019-01-14T07:47:14.731Z,35.23
2019-01-14T07:47:51.911Z,35.23
2019-01-14T07:48:28.609Z,35.23
2019-01-14T07:49:04.790Z,35.26
2019-01-14T07:49:41.462Z,35.30
2019-01-14T07:50:19.062Z,35.29
2019-01-14T07:50:55.522Z,35.31
2019-01-14T07:51:32.533Z,35.34
2019-01-14T07:52:09.243Z,35.34
2019-01-14T07:52:46.396Z,35.34
2019-01-14T07:53:23.540Z,35.35
2019-01-14T07:53:59.896Z,35.34
2019-01-14T07:54:36.631Z,35.33